Friday, September 21, 2018, 6:03 PM EDT
Back to Local

KLEW, Auburn-lewiston

Location: Auburn, ME, United States Lat: 44.05
Local Time: 6:03 PM EDT (22:03 GMT) Lon: -70.283
Time Zone: US/Eastern Elev: 288 ft

Show me the last for .
Show Decoded

2018-09-21 17:06 METAR KLEW 212106Z AUTO 17008KT 10SM BKN021 OVC036 16/12 A3003 RMK AO2 =
2018-09-21 16:56 METAR KLEW 212056Z AUTO 17009KT 10SM SCT021 OVC036 16/12 A3004 RMK AO2 SLP187
                 T01560122 56038 =
2018-09-21 15:56 METAR KLEW 211956Z AUTO 17012G16KT 10SM OVC038 16/12 A3007 RMK AO2 SLP199
                 T01560117 =
2018-09-21 15:39 METAR KLEW 211939Z AUTO 18010G17KT 10SM SCT024 SCT028 OVC038 16/12 A3008 RMK AO2
                 =
2018-09-21 15:19 METAR KLEW 211919Z AUTO 17011G15KT 10SM BKN024 BKN030 OVC038 16/12 A3009 RMK AO2
                 =
2018-09-21 15:09 METAR KLEW 211909Z AUTO 18011KT 10SM SCT026 BKN030 OVC038 16/12 A3010 RMK AO2 =
2018-09-21 14:56 METAR KLEW 211856Z AUTO 17010KT 10SM BKN026 OVC040 16/12 A3011 RMK AO2 SLP210
                 T01610122 =
2018-09-21 13:56 METAR KLEW 211756Z AUTO 16011G15KT 10SM BKN028 OVC043 16/12 A3015 RMK AO2 SLP225
                 60000 T01610117 10167 20128 57030 =
2018-09-21 12:56 METAR KLEW 211656Z AUTO 17013G19KT 10SM OVC047 16/11 A3018 RMK AO2 SLP236
                 T01610106 =
2018-09-21 11:56 METAR KLEW 211556Z AUTO 16007KT 10SM OVC049 16/12 A3021 RMK AO2 RAE54 SLP246
                 P0000 T01560117 =
2018-09-21 11:07 METAR KLEW 211507Z AUTO 17009G16KT 10SM -RA SCT024 SCT030 OVC049 16/11 A3023 RMK
                 AO2 P0000 =
2018-09-21 10:56 METAR KLEW 211456Z AUTO 17010G14KT 10SM -RA BKN024 BKN030 OVC049 16/12 A3024 RMK
                 AO2 RAB56 SLP255 P0000 60000 T01610117 58018 =
2018-09-21 10:47 METAR KLEW 211447Z AUTO 18008KT 10SM BKN022 BKN030 OVC050 16/12 A3025 RMK AO2 =
2018-09-21 09:56 METAR KLEW 211356Z AUTO 17009KT 10SM OVC050 15/12 A3026 RMK AO2 SLP264 T01500122
                 =
2018-09-21 08:56 METAR KLEW 211256Z AUTO 16006KT 10SM OVC050 14/12 A3029 RMK AO2 SLP275 T01390122
                 =
2018-09-21 07:56 METAR KLEW 211156Z AUTO 15004KT 10SM FEW110 13/12 A3029 RMK AO2 SLP274 T01280117
                 10128 20100 58003 =
2018-09-21 06:56 METAR KLEW 211056Z AUTO 17005KT 10SM SCT120 12/11 A3029 RMK AO2 SLP275 T01220111
                 =
2018-09-21 05:56 METAR KLEW 210956Z AUTO 00000KT 10SM FEW021 BKN039 OVC046 12/11 A3031 RMK AO2
                 SLP280 T01170111 =
2018-09-21 04:56 METAR KLEW 210856Z AUTO 00000KT 10SM OVC044 11/11 A3030 RMK AO2 SLP276 T01110111
                 55004 =
2018-09-21 03:56 METAR KLEW 210756Z AUTO 00000KT 10SM OVC038 11/11 A3030 RMK AO2 SLP276 T01110111
                 =
2018-09-21 02:56 METAR KLEW 210656Z AUTO 00000KT 10SM OVC032 11/10 A3030 RMK AO2 SLP278 T01060100
                 =
2018-09-21 01:56 METAR KLEW 210556Z AUTO 00000KT 10SM OVC030 10/10 A3031 RMK AO2 SLP281 T01000100
                 10128 20089 58003 =
2018-09-21 01:20 METAR KLEW 210520Z AUTO 00000KT 10SM FEW002 BKN030 09/09 A3032 RMK AO2 =
2018-09-21 01:13 METAR KLEW 210513Z AUTO 00000KT 2SM BR SCT002 SCT030 09/09 A3032 RMK AO2 =
2018-09-21 01:06 METAR KLEW 210506Z AUTO 00000KT 1SM BR VV002 09/09 A3032 RMK AO2 =
2018-09-21 00:56 METAR KLEW 210456Z AUTO 00000KT 1 1/2SM BR CLR 09/09 A3032 RMK AO2 SLP284
                 T00890089 =
2018-09-21 00:46 METAR KLEW 210446Z AUTO 00000KT 1 1/2SM BR CLR 09/09 A3032 RMK AO2 VIS 1/2V5 =
2018-09-21 00:39 METAR KLEW 210439Z AUTO 00000KT 5SM BR CLR 10/10 A3032 RMK AO2 =
2018-09-21 00:32 METAR KLEW 210432Z AUTO 00000KT 2 1/2SM BR CLR 09/09 A3032 RMK AO2 =
2018-09-21 00:28 METAR KLEW 210428Z AUTO 00000KT 1SM BR CLR 09/09 A3032 RMK AO2 =
2018-09-21 00:24 METAR KLEW 210424Z AUTO 00000KT 1/2SM FG CLR 09/09 A3032 RMK AO2 =
2018-09-21 00:19 METAR KLEW 210419Z AUTO 00000KT 1SM BR CLR 09/09 A3032 RMK AO2 =
2018-09-21 00:10 METAR KLEW 210410Z AUTO 00000KT 2SM BR CLR 09/09 A3032 RMK AO2 VIS 1V5 =
2018-09-20 23:56 METAR KLEW 210356Z AUTO 16003KT 8SM CLR 11/11 A3032 RMK AO2 SLP284 T01060106
                 401670100 =
2018-09-20 23:27 METAR KLEW 210327Z AUTO 00000KT 4SM BR CLR 10/10 A3033 RMK AO2 =
2018-09-20 23:24 METAR KLEW 210324Z AUTO 00000KT 1 1/4SM BR CLR 10/10 A3033 RMK AO2 VIS 1/2V5 =
2018-09-20 23:14 METAR KLEW 210314Z AUTO 00000KT 3/4SM BR CLR 10/10 A3032 RMK AO2 VIS 1/2V1 3/4 =
2018-09-20 23:09 METAR KLEW 210309Z AUTO 00000KT 1 3/4SM BR CLR 11/11 A3032 RMK AO2 =
2018-09-20 22:56 METAR KLEW 210256Z AUTO 00000KT 9SM CLR 11/11 A3032 RMK AO2 SLP283 T01110106
                 51006 =
2018-09-20 21:56 METAR KLEW 210156Z AUTO 16004KT 10SM CLR 12/11 A3031 RMK AO2 SLP281 T01170111 =
2018-09-20 20:56 METAR KLEW 210056Z AUTO 16004KT 10SM CLR 12/12 A3031 RMK AO2 SLP280 T01220117 =
2018-09-20 19:56 METAR KLEW 202356Z AUTO 17006KT 10SM BKN110 13/12 A3030 RMK AO2 SLP277 T01280117
                 10167 20128 51015 =
2018-09-20 18:56 METAR KLEW 202256Z AUTO 16005KT 10SM BKN120 13/12 A3029 RMK AO2 SLP272 T01330117
                 =

Support USWX by starting your Amazon purchase here.